createdAt,value
2023-05-11T07:02:38.126Z,15.57
2023-05-11T07:05:41.162Z,15.92
2023-05-11T07:08:43.652Z,16.01
2023-05-11T07:11:46.446Z,15.97
2023-05-11T07:14:48.945Z,16.26
2023-05-11T07:17:53.571Z,16.33
2023-05-11T07:20:56.225Z,16.86
2023-05-11T07:23:59.352Z,16.68
2023-05-11T07:27:02.068Z,16.32
2023-05-11T07:30:05.776Z,16.70
2023-05-11T07:33:09.508Z,17.19
2023-05-11T07:36:12.280Z,17.20
2023-05-11T07:39:17.053Z,17.61
2023-05-11T07:42:19.843Z,17.18
2023-05-11T07:45:22.438Z,17.09
2023-05-11T07:48:26.716Z,17.38
2023-05-11T07:51:29.119Z,17.18
2023-05-11T07:54:31.832Z,17.10
2023-05-11T07:57:34.394Z,17.28
2023-05-11T08:00:37.665Z,17.55
2023-05-11T08:03:42.006Z,17.32
2023-05-11T08:06:44.813Z,17.48
2023-05-11T08:09:47.701Z,17.72
2023-05-11T08:12:50.090Z,17.44
2023-05-11T08:15:52.787Z,17.35
2023-05-11T08:18:56.755Z,17.69
2023-05-11T08:22:00.695Z,17.70
2023-05-11T08:25:03.662Z,17.74
2023-05-11T08:28:06.505Z,17.55
2023-05-11T08:31:08.966Z,17.79
2023-05-11T08:34:19.200Z,17.99
2023-05-11T08:37:22.766Z,18.32
2023-05-11T08:40:26.505Z,18.51
2023-05-11T08:43:29.178Z,18.47
2023-05-11T08:46:31.920Z,18.71
2023-05-11T08:49:35.751Z,18.61
2023-05-11T08:52:38.518Z,18.65
2023-05-11T08:55:41.928Z,18.72
2023-05-11T08:58:44.494Z,18.74
2023-05-11T09:01:46.889Z,18.69
2023-05-11T09:04:51.215Z,19.00
2023-05-11T09:07:57.713Z,19.12
2023-05-11T09:11:00.953Z,18.98
2023-05-11T09:14:03.444Z,18.76
2023-05-11T09:17:06.493Z,18.99
2023-05-11T09:20:11.527Z,19.25
2023-05-11T09:23:16.217Z,18.83
2023-05-11T09:26:20.395Z,18.72
2023-05-11T09:29:23.132Z,18.82
2023-05-11T09:32:25.669Z,18.58
2023-05-11T09:35:30.990Z,18.35
2023-05-11T09:38:34.135Z,18.94
2023-05-11T09:41:36.882Z,18.91
2023-05-11T09:44:39.384Z,19.24
2023-05-11T09:47:42.158Z,19.50
2023-05-11T09:50:46.028Z,19.84
2023-05-11T09:53:48.778Z,19.46
2023-05-11T09:56:52.455Z,19.33
2023-05-11T09:59:56.391Z,19.49
2023-05-11T10:03:03.125Z,19.28
2023-05-11T10:06:07.741Z,19.23
2023-05-11T10:09:10.472Z,19.60
2023-05-11T10:12:13.127Z,19.47
2023-05-11T10:15:15.803Z,19.60
2023-05-11T10:18:20.230Z,19.38
2023-05-11T10:21:24.383Z,19.14
2023-05-11T10:24:27.204Z,19.19
2023-05-11T10:27:30.167Z,19.36
2023-05-11T10:30:33.346Z,19.14
2023-05-11T10:33:35.957Z,19.39
2023-05-11T10:36:40.003Z,19.39
2023-05-11T10:39:42.751Z,19.33
2023-05-11T10:43:10.783Z,19.32
2023-05-11T10:46:24.852Z,19.93
2023-05-11T10:49:37.369Z,19.98
2023-05-11T10:52:53.216Z,19.50
2023-05-11T10:56:10.126Z,19.57
2023-05-11T10:59:33.596Z,19.52
2023-05-11T11:02:36.366Z,19.44
2023-05-11T11:05:39.111Z,19.52
2023-05-11T11:09:05.280Z,19.67
2023-05-11T11:12:11.142Z,19.57
2023-05-11T11:15:13.886Z,19.78
2023-05-11T11:18:19.771Z,19.85
2023-05-11T11:21:41.516Z,19.79
2023-05-11T11:24:46.015Z,19.18
2023-05-11T11:27:55.992Z,19.25
2023-05-11T11:31:28.926Z,19.24
2023-05-11T11:34:36.449Z,19.69
2023-05-11T11:38:00.202Z,19.89
2023-05-11T11:41:04.383Z,19.74
2023-05-11T11:44:07.119Z,19.86
2023-05-11T11:47:13.491Z,19.61
2023-05-11T11:50:16.087Z,19.98
2023-05-11T11:54:04.888Z,20.51
2023-05-11T11:57:40.698Z,20.26
2023-05-11T12:00:47.062Z,19.94
2023-05-11T12:03:57.835Z,19.91
2023-05-11T12:07:00.321Z,20.18
2023-05-11T12:10:04.071Z,20.11
2023-05-11T12:13:06.642Z,19.92
2023-05-11T12:16:11.570Z,19.84
2023-05-11T12:19:14.032Z,19.93
2023-05-11T12:22:22.236Z,20.27
2023-05-11T12:25:24.781Z,20.73
2023-05-11T12:28:27.590Z,20.19
2023-05-11T12:31:34.580Z,20.02
2023-05-11T12:34:37.319Z,20.32
2023-05-11T12:37:41.735Z,20.12
2023-05-11T12:40:47.788Z,20.87
2023-05-11T12:43:50.268Z,20.85
2023-05-11T12:46:54.426Z,20.47
2023-05-11T12:49:57.150Z,20.64
2023-05-11T12:53:13.078Z,20.40
2023-05-11T12:56:15.560Z,20.15
2023-05-11T12:59:25.728Z,20.29
2023-05-11T13:02:29.517Z,20.53
2023-05-11T13:05:32.390Z,20.46
2023-05-11T13:08:34.853Z,20.69
2023-05-11T13:11:37.557Z,20.78
2023-05-11T13:14:40.073Z,20.56
2023-05-11T13:17:44.329Z,20.84
2023-05-11T13:20:46.671Z,20.64
2023-05-11T13:23:49.315Z,20.92
2023-05-11T13:26:51.775Z,20.57
2023-05-11T13:29:54.466Z,20.39
2023-05-11T13:32:58.313Z,20.49
2023-05-11T13:36:01.774Z,20.47
2023-05-11T13:39:04.208Z,20.54
2023-05-11T13:42:06.967Z,20.35
2023-05-11T13:45:10.478Z,20.14
2023-05-11T13:48:14.689Z,20.23
2023-05-11T13:51:17.201Z,20.33
2023-05-11T13:54:21.237Z,20.36
2023-05-11T13:57:23.855Z,20.45
2023-05-11T14:00:26.748Z,20.64
2023-05-11T14:03:32.030Z,20.34
2023-05-11T14:06:34.728Z,20.58
2023-05-11T14:09:37.428Z,20.42
2023-05-11T14:12:40.153Z,20.33
2023-05-11T14:15:42.856Z,20.47
2023-05-11T14:18:46.870Z,20.38
2023-05-11T14:21:49.767Z,20.32
2023-05-11T14:24:52.258Z,20.45
2023-05-11T14:27:55.810Z,20.34
2023-05-11T14:30:58.560Z,20.37
2023-05-11T14:34:02.655Z,20.30
2023-05-11T14:37:05.685Z,20.31
2023-05-11T14:40:09.225Z,20.54
2023-05-11T14:43:11.918Z,20.38
2023-05-11T14:46:14.768Z,20.30
2023-05-11T14:49:18.519Z,20.24
2023-05-11T14:52:21.225Z,20.08
2023-05-11T14:55:23.705Z,20.22
